createdAt,value
2018-07-24T00:00:27.601Z,21.10
2018-07-24T00:03:52.095Z,21.00
2018-07-24T00:07:16.558Z,20.90
2018-07-24T00:10:41.027Z,20.90
2018-07-24T00:14:05.473Z,20.80
2018-07-24T00:17:29.983Z,20.80
2018-07-24T00:20:54.491Z,20.70
2018-07-24T00:24:18.924Z,20.80
2018-07-24T00:27:43.374Z,20.80
2018-07-24T00:31:08.753Z,20.70
2018-07-24T00:34:33.294Z,20.70
2018-07-24T00:37:57.775Z,20.60
2018-07-24T00:41:22.235Z,20.60
2018-07-24T00:44:46.706Z,20.60
2018-07-24T00:48:11.200Z,20.60
2018-07-24T00:51:35.634Z,20.60
2018-07-24T00:55:00.116Z,20.60
2018-07-24T00:58:24.574Z,20.50
2018-07-24T01:01:48.991Z,20.50
2018-07-24T01:05:13.418Z,20.50
2018-07-24T01:08:38.925Z,20.50
2018-07-24T01:12:03.328Z,20.40
2018-07-24T01:15:27.795Z,20.40
2018-07-24T01:18:52.283Z,20.40
2018-07-24T01:22:16.779Z,20.50
2018-07-24T01:25:41.223Z,20.50
2018-07-24T01:29:05.687Z,20.40
2018-07-24T01:32:30.149Z,20.40
2018-07-24T01:35:54.637Z,20.30
2018-07-24T01:39:19.139Z,20.30
2018-07-24T01:42:43.616Z,20.20
2018-07-24T01:46:08.078Z,20.10
2018-07-24T01:49:32.572Z,20.10
2018-07-24T01:56:21.197Z,19.90
2018-07-24T01:59:45.634Z,19.90
2018-07-24T02:03:10.056Z,19.90
2018-07-24T02:06:34.467Z,19.90
2018-07-24T02:09:58.914Z,19.90
2018-07-24T02:13:23.370Z,19.80
2018-07-24T02:16:47.805Z,19.80
2018-07-24T02:20:12.293Z,19.70
2018-07-24T02:23:36.757Z,19.70
2018-07-24T02:27:01.210Z,19.60
2018-07-24T02:30:25.667Z,19.60
2018-07-24T02:33:50.123Z,19.60
2018-07-24T02:37:14.586Z,19.50
2018-07-24T02:40:39.024Z,19.50
2018-07-24T02:44:03.487Z,19.50
2018-07-24T02:47:27.938Z,19.50
2018-07-24T02:50:52.409Z,19.50
2018-07-24T02:54:16.899Z,19.50
2018-07-24T02:57:41.348Z,19.40
2018-07-24T03:01:05.784Z,19.40
2018-07-24T03:04:30.223Z,19.40
2018-07-24T03:07:54.684Z,19.30
2018-07-24T03:11:19.161Z,19.20
2018-07-24T03:14:43.686Z,19.20
2018-07-24T03:18:08.134Z,19.20
2018-07-24T03:21:32.663Z,19.20
2018-07-24T03:24:57.155Z,19.10
2018-07-24T03:28:21.651Z,19.10
2018-07-24T03:31:46.091Z,19.10
2018-07-24T03:35:10.586Z,19.10
2018-07-24T03:38:35.091Z,19.00
2018-07-24T03:41:59.511Z,19.00
2018-07-24T03:45:23.963Z,19.00
2018-07-24T03:48:48.435Z,19.00
2018-07-24T03:52:12.986Z,19.00
2018-07-24T03:55:37.466Z,18.90
2018-07-24T03:59:01.940Z,18.90
2018-07-24T04:02:26.492Z,18.90
2018-07-24T04:05:50.854Z,19.00
2018-07-24T04:09:15.281Z,18.90
2018-07-24T04:12:39.713Z,19.00
2018-07-24T04:16:04.347Z,18.90
2018-07-24T04:19:28.798Z,19.00
2018-07-24T04:22:53.305Z,19.00
2018-07-24T04:26:17.922Z,19.00
2018-07-24T04:29:42.360Z,19.10
2018-07-24T04:33:06.862Z,19.10
2018-07-24T04:36:31.310Z,19.20
2018-07-24T04:39:55.776Z,19.20
2018-07-24T04:43:20.171Z,19.30
2018-07-24T04:46:44.610Z,19.30
2018-07-24T04:50:09.042Z,19.40
2018-07-24T04:53:33.505Z,19.40
2018-07-24T04:56:57.999Z,19.50
2018-07-24T05:00:22.422Z,19.50
2018-07-24T05:03:46.893Z,19.60
2018-07-24T05:07:11.335Z,19.70
2018-07-24T05:10:35.849Z,19.80
2018-07-24T05:14:00.729Z,19.90
2018-07-24T05:17:25.172Z,20.00
2018-07-24T05:20:49.650Z,20.10
2018-07-24T05:24:14.094Z,20.20
2018-07-24T05:27:38.532Z,20.30
2018-07-24T05:31:02.990Z,20.30
2018-07-24T05:34:27.458Z,20.50
2018-07-24T05:37:51.890Z,20.60
2018-07-24T05:41:16.353Z,20.70
2018-07-24T05:44:40.780Z,20.90
2018-07-24T05:48:05.232Z,21.00
2018-07-24T05:51:29.693Z,21.20
2018-07-24T05:54:54.143Z,21.30
2018-07-24T05:58:18.598Z,21.40
2018-07-24T06:01:43.072Z,21.50
2018-07-24T06:05:07.694Z,21.60
2018-07-24T06:08:32.143Z,21.70
2018-07-24T06:11:56.629Z,21.80
2018-07-24T06:15:21.071Z,22.00
2018-07-24T06:18:45.502Z,22.10
2018-07-24T06:22:09.981Z,22.20
2018-07-24T06:25:34.438Z,22.30
2018-07-24T06:28:58.899Z,22.40
2018-07-24T06:32:23.324Z,22.50
2018-07-24T06:35:47.786Z,22.60
2018-07-24T06:39:13.539Z,22.70
2018-07-24T06:46:02.110Z,23.00
2018-07-24T06:49:26.545Z,23.10
2018-07-24T06:52:50.994Z,23.20
2018-07-24T06:56:15.441Z,23.30
2018-07-24T06:59:39.898Z,23.40
2018-07-24T07:03:04.348Z,23.50
2018-07-24T07:06:28.799Z,23.60
2018-07-24T07:09:53.249Z,23.80
2018-07-24T07:13:17.684Z,23.90
2018-07-24T07:16:42.167Z,24.00
2018-07-24T07:20:06.703Z,24.10
2018-07-24T07:23:31.538Z,24.20
2018-07-24T07:26:55.957Z,24.30
2018-07-24T07:30:20.428Z,24.40
2018-07-24T07:33:44.886Z,24.60
2018-07-24T07:37:09.348Z,24.60
2018-07-24T07:40:33.819Z,24.60
2018-07-24T07:43:58.340Z,24.80
2018-07-24T07:47:22.840Z,24.90
2018-07-24T07:50:47.295Z,25.00
2018-07-24T07:54:11.769Z,25.10
2018-07-24T07:57:36.229Z,25.20
2018-07-24T08:01:00.764Z,25.30
2018-07-24T08:04:25.299Z,25.40
2018-07-24T08:07:49.711Z,25.50
2018-07-24T08:11:14.166Z,25.60
2018-07-24T08:14:38.625Z,25.80
2018-07-24T08:18:03.097Z,26.00
2018-07-24T08:21:27.603Z,26.20
2018-07-24T08:24:52.241Z,26.30
2018-07-24T08:28:16.752Z,26.30
2018-07-24T08:31:41.141Z,26.50
2018-07-24T08:35:05.617Z,26.60
2018-07-24T08:38:30.137Z,26.70
2018-07-24T08:41:54.643Z,26.80
2018-07-24T08:45:19.086Z,26.90
2018-07-24T08:48:43.525Z,27.00
2018-07-24T08:52:08.049Z,27.10
2018-07-24T08:55:32.921Z,27.20
2018-07-24T08:58:56.987Z,27.40
2018-07-24T09:02:21.473Z,27.40
2018-07-24T09:05:45.924Z,27.60
2018-07-24T09:09:11.942Z,27.90
2018-07-24T09:12:36.478Z,28.10
2018-07-24T09:16:00.908Z,28.40
2018-07-24T09:19:25.372Z,28.60
2018-07-24T09:22:49.855Z,28.80
2018-07-24T09:26:14.359Z,28.90
2018-07-24T09:29:38.797Z,29.10
2018-07-24T09:33:03.214Z,29.10
2018-07-24T09:36:27.699Z,29.30
2018-07-24T09:39:52.186Z,29.40
2018-07-24T09:43:16.646Z,29.50
2018-07-24T09:46:41.155Z,29.70
2018-07-24T09:50:05.862Z,29.80
2018-07-24T09:53:30.351Z,30.00
2018-07-24T09:56:54.838Z,30.20
2018-07-24T10:00:23.335Z,30.70
2018-07-24T10:03:47.811Z,30.80
2018-07-24T10:07:12.257Z,31.10
2018-07-24T10:10:36.699Z,31.50
2018-07-24T10:14:01.149Z,31.70
2018-07-24T10:17:25.628Z,31.80
2018-07-24T10:20:50.129Z,32.10
2018-07-24T10:24:14.579Z,32.30
2018-07-24T10:27:39.013Z,33.20
2018-07-24T10:31:11.399Z,34.20
2018-07-24T10:34:37.321Z,34.80
2018-07-24T10:38:01.753Z,35.10
2018-07-24T10:41:26.185Z,34.90
2018-07-24T10:44:50.644Z,35.10
2018-07-24T10:48:15.071Z,35.00
2018-07-24T10:51:39.564Z,35.50
2018-07-24T10:55:03.996Z,36.00
2018-07-24T10:58:28.455Z,36.50
2018-07-24T11:01:52.942Z,36.90
2018-07-24T11:05:17.378Z,37.20
2018-07-24T11:08:41.817Z,37.80
2018-07-24T11:12:06.276Z,38.10
2018-07-24T11:15:30.796Z,38.50
2018-07-24T11:18:55.202Z,38.30
2018-07-24T11:22:19.705Z,38.70
2018-07-24T11:25:44.311Z,38.90
2018-07-24T11:29:08.747Z,39.50
2018-07-24T11:32:33.282Z,39.80
2018-07-24T11:35:57.928Z,40.00
2018-07-24T11:39:22.296Z,40.80
2018-07-24T11:42:46.718Z,40.70
2018-07-24T11:46:11.174Z,40.70
2018-07-24T11:49:35.615Z,40.60
2018-07-24T11:53:00.056Z,40.60
2018-07-24T11:56:24.501Z,39.90
2018-07-24T11:59:48.984Z,39.80
2018-07-24T12:03:13.383Z,40.30
2018-07-24T12:06:37.806Z,40.60
2018-07-24T12:10:02.265Z,40.90
2018-07-24T12:13:26.740Z,40.80
2018-07-24T12:16:51.212Z,40.10
2018-07-24T12:20:15.802Z,40.60
2018-07-24T12:23:40.421Z,40.10
2018-07-24T12:27:05.375Z,40.90
2018-07-24T12:30:29.862Z,41.20
2018-07-24T12:33:55.175Z,41.70
2018-07-24T12:37:19.820Z,41.00
2018-07-24T12:40:44.483Z,40.30
2018-07-24T12:44:09.044Z,40.80
2018-07-24T12:47:33.651Z,41.80
2018-07-24T12:50:58.291Z,41.70
2018-07-24T12:54:22.869Z,41.90
2018-07-24T12:57:47.486Z,42.50
2018-07-24T13:01:12.049Z,42.70
2018-07-24T13:04:36.624Z,43.20
2018-07-24T13:08:01.246Z,43.40
2018-07-24T13:11:25.843Z,43.80
2018-07-24T13:14:50.423Z,44.50
2018-07-24T13:18:15.020Z,43.70
2018-07-24T13:21:39.579Z,43.70
2018-07-24T13:25:04.267Z,43.40
2018-07-24T13:28:28.916Z,43.10
2018-07-24T13:31:53.547Z,43.30
2018-07-24T13:35:18.001Z,44.10
2018-07-24T13:38:42.625Z,43.40
2018-07-24T13:42:07.283Z,43.20
2018-07-24T13:45:32.029Z,44.40
2018-07-24T13:48:56.706Z,45.60
2018-07-24T13:52:21.306Z,45.10
2018-07-24T13:55:45.863Z,44.70
2018-07-24T13:59:10.399Z,45.70
2018-07-24T14:02:34.898Z,46.80
2018-07-24T14:05:59.443Z,46.40
2018-07-24T14:09:23.945Z,46.10
2018-07-24T14:12:48.489Z,46.50
2018-07-24T14:16:13.055Z,45.50
2018-07-24T14:19:37.651Z,45.10
2018-07-24T14:23:02.220Z,44.60
2018-07-24T14:26:26.807Z,45.50
2018-07-24T14:29:51.422Z,46.70
2018-07-24T14:33:22.217Z,46.60
2018-07-24T14:36:46.774Z,46.10
2018-07-24T14:40:11.348Z,46.40
2018-07-24T14:43:35.868Z,47.00
2018-07-24T14:47:00.404Z,47.30
2018-07-24T14:50:24.885Z,47.90
2018-07-24T14:53:49.317Z,49.20
2018-07-24T14:57:13.754Z,49.10
2018-07-24T15:00:38.237Z,49.90
2018-07-24T15:04:02.764Z,50.10
2018-07-24T15:07:27.275Z,50.80
2018-07-24T15:10:51.785Z,51.00
2018-07-24T15:14:16.208Z,50.60
2018-07-24T15:17:40.640Z,50.40
2018-07-24T15:21:05.042Z,49.70
2018-07-24T15:24:29.474Z,49.50
2018-07-24T15:27:54.186Z,49.90
2018-07-24T15:31:18.709Z,50.10
2018-07-24T15:34:44.209Z,50.00
2018-07-24T15:38:10.737Z,48.50
2018-07-24T15:41:38.106Z,47.50
2018-07-24T15:45:02.576Z,48.00
2018-07-24T15:48:26.993Z,49.10
2018-07-24T15:51:51.466Z,50.00
2018-07-24T15:55:28.206Z,50.50
2018-07-24T15:58:57.670Z,50.10
2018-07-24T16:02:22.302Z,50.00
2018-07-24T16:05:46.936Z,50.50
2018-07-24T16:09:13.064Z,50.50
2018-07-24T16:12:37.613Z,50.80
2018-07-24T16:16:02.225Z,50.30
2018-07-24T16:19:26.871Z,49.80
2018-07-24T16:22:51.449Z,49.40
2018-07-24T16:26:16.006Z,49.00
2018-07-24T16:29:40.465Z,48.50
2018-07-24T16:33:05.036Z,46.60
2018-07-24T16:36:32.662Z,44.30
2018-07-24T16:39:57.187Z,42.50
2018-07-24T16:43:21.702Z,42.90
2018-07-24T16:46:46.212Z,43.80
2018-07-24T16:50:10.824Z,44.30
2018-07-24T16:53:35.402Z,44.40
2018-07-24T16:57:00.002Z,44.80
2018-07-24T17:00:24.732Z,44.60
2018-07-24T17:03:49.213Z,44.40
2018-07-24T17:07:13.716Z,43.50
2018-07-24T17:10:38.295Z,41.90
2018-07-24T17:14:02.962Z,40.50
2018-07-24T17:17:27.321Z,39.60
2018-07-24T17:20:51.816Z,38.90
2018-07-24T17:24:16.324Z,38.20
2018-07-24T17:27:40.869Z,37.60
2018-07-24T17:31:05.424Z,37.20
2018-07-24T17:37:54.223Z,36.70
2018-07-24T17:41:18.775Z,36.50
2018-07-24T17:44:43.230Z,36.40
2018-07-24T17:48:08.150Z,36.20
2018-07-24T17:51:32.681Z,35.90
2018-07-24T17:54:57.209Z,35.60
2018-07-24T18:01:45.957Z,35.00
2018-07-24T18:05:10.380Z,34.90
2018-07-24T18:08:34.890Z,34.80
2018-07-24T18:11:59.539Z,34.70
2018-07-24T18:15:24.025Z,34.60
2018-07-24T18:18:48.502Z,34.40
2018-07-24T18:22:13.064Z,34.00
2018-07-24T18:25:37.690Z,33.80
2018-07-24T18:29:02.214Z,33.50
2018-07-24T18:32:26.887Z,33.40
2018-07-24T18:35:51.401Z,33.10
2018-07-24T18:39:15.840Z,32.90
2018-07-24T18:42:40.342Z,32.80
2018-07-24T18:49:29.023Z,32.30
2018-07-24T18:52:53.499Z,32.20
2018-07-24T18:56:17.927Z,32.00
2018-07-24T18:59:42.392Z,31.80
2018-07-24T19:03:06.868Z,31.60
2018-07-24T19:06:31.291Z,31.40
2018-07-24T19:09:55.699Z,31.10
2018-07-24T19:13:20.153Z,30.70
2018-07-24T19:16:44.619Z,30.40
2018-07-24T19:20:09.077Z,30.20
2018-07-24T19:23:33.556Z,30.10
2018-07-24T19:26:58.007Z,29.90
2018-07-24T19:30:22.428Z,29.70
2018-07-24T19:33:46.853Z,29.50
2018-07-24T19:37:11.298Z,29.40
2018-07-24T19:40:35.746Z,29.30
2018-07-24T19:44:00.312Z,29.10
2018-07-24T19:47:24.657Z,29.00
2018-07-24T19:50:49.107Z,28.80
2018-07-24T19:54:13.550Z,28.70
2018-07-24T19:57:38.032Z,28.50
2018-07-24T20:01:02.511Z,28.40
2018-07-24T20:04:26.975Z,28.30
2018-07-24T20:07:51.375Z,28.20
2018-07-24T20:11:16.758Z,28.00
2018-07-24T20:14:41.168Z,27.90
2018-07-24T20:18:05.612Z,27.70
2018-07-24T20:21:30.033Z,27.50
2018-07-24T20:24:55.975Z,27.30
2018-07-24T20:28:20.457Z,27.20
2018-07-24T20:31:44.872Z,27.00
2018-07-24T20:35:09.368Z,27.00
2018-07-24T20:38:33.758Z,27.00
2018-07-24T20:41:58.189Z,26.90
2018-07-24T20:45:22.975Z,26.90
2018-07-24T20:48:47.404Z,26.80
2018-07-24T20:52:11.846Z,26.80
2018-07-24T20:55:36.308Z,26.70
2018-07-24T20:59:00.756Z,26.60
2018-07-24T21:02:25.213Z,26.50
2018-07-24T21:05:49.677Z,26.40
2018-07-24T21:09:14.377Z,26.30
2018-07-24T21:12:38.795Z,26.10
2018-07-24T21:16:03.303Z,26.00
2018-07-24T21:19:27.799Z,26.10
2018-07-24T21:22:52.458Z,26.20
2018-07-24T21:26:16.911Z,26.30
2018-07-24T21:29:41.377Z,26.50
2018-07-24T21:33:06.089Z,26.50
2018-07-24T21:36:30.710Z,26.50
2018-07-24T21:39:55.155Z,26.50
2018-07-24T21:43:19.610Z,26.50
2018-07-24T21:46:44.084Z,26.50
2018-07-24T21:50:08.609Z,26.50
2018-07-24T21:53:33.177Z,26.40
2018-07-24T21:56:57.710Z,26.40
2018-07-24T22:00:22.352Z,26.40
2018-07-24T22:03:46.775Z,26.30
2018-07-24T22:07:11.275Z,26.20
2018-07-24T22:10:35.756Z,26.20
2018-07-24T22:14:00.302Z,26.10
2018-07-24T22:17:24.811Z,26.10
2018-07-24T22:20:49.395Z,26.00
2018-07-24T22:24:14.024Z,25.90
2018-07-24T22:27:38.569Z,25.90
2018-07-24T22:31:03.174Z,25.80
2018-07-24T22:34:27.664Z,25.70
2018-07-24T22:41:16.545Z,25.60
2018-07-24T22:44:41.119Z,25.60
2018-07-24T22:48:05.692Z,25.60
2018-07-24T22:51:30.340Z,25.60
2018-07-24T22:54:54.870Z,25.50
2018-07-24T22:58:19.431Z,25.40
2018-07-24T23:01:43.964Z,25.30
2018-07-24T23:05:08.570Z,25.20
2018-07-24T23:08:33.112Z,25.10
2018-07-24T23:11:57.601Z,25.00
2018-07-24T23:15:22.229Z,25.00
2018-07-24T23:18:46.787Z,25.00
2018-07-24T23:22:11.418Z,25.00
2018-07-24T23:25:35.983Z,24.90
2018-07-24T23:29:00.578Z,24.80
2018-07-24T23:32:25.193Z,24.80
2018-07-24T23:35:49.782Z,24.70
2018-07-24T23:39:14.285Z,24.60
2018-07-24T23:42:39.278Z,24.50
2018-07-24T23:46:03.907Z,24.40
2018-07-24T23:49:28.741Z,24.30
2018-07-24T23:52:53.623Z,24.30
2018-07-24T23:56:18.765Z,24.20
2018-07-24T23:59:43.945Z,24.10
